Hartshill, United Kingdom
Current Conditions -  °F | °C
As of 7:20 PM on Tuesday 21 Oct 2014 (Local Time) from EGBB Reporting Station
Few Clouds Few Clouds  
Wind Chill: 39°   Ceiling: Unl
Heat Index: 46°   Visibility: 6mi
Dew Point: 37°   Wind: 17mph
Humidity: 71%   Direction: 290°WNW
Pressure: 29.97"   Gusts: NA
Location:  52.54°N, 1.52°W
Report Text: EGBB 211820Z 29015KT 9999 FEW040 08/03 Q1015
Loading
Personal Weather Stations






























Interactive Weather Map New forecast layout! Learn more

10-Day Weather Forecast

Advertisements
Track Severe Weather on mobile